Observations
| Time | Sensor | AQI | SAQ | Temp °C | Hum % | Pres Pa | CO μg/m³ | H₂S μg/m³ | NO μg/m³ | NO₂ μg/m³ | O₃ μg/m³ | SO₂ μg/m³ | CO₂e PPM | VOC PPM | PM1 μg/m³ | PM2.5 μg/m³ | PM4 μg/m³ | PM10 μg/m³ | TPS µm |
|---|---|---|---|---|---|---|---|---|---|---|---|---|---|---|---|---|---|---|---|
| Tuesday 11 August 2026 | |||||||||||||||||||
| 01:23 | Trim Patrick St | 2 | 13.1 | 71 | 38,459 | 0.25 | 5.87 | 3.7 | 34.33 | 11.11 | 0 | 3.71 | 7.22 | 7.94 | |||||
| 01:21 | Trim Market St | 2 | 14.8 | 64 | 57,734 | 0.27 | 0 | 1.82 | 15.71 | 39.67 | 0 | 1.43 | 3.36 | 4.87 | |||||
| 01:20 | Trim Patrick St | 2 | 13.1 | 71 | 38,457 | 0.24 | 5.67 | 3.61 | 33.43 | 12.99 | 0 | 2.86 | 7.22 | 7.95 | |||||
| 01:20 | Trim Market St | 2 | 14.8 | 64 | 57,739 | 0.29 | 0 | 2.07 | 12.83 | 36.04 | 0 | 2.85 | 3.86 | 5.53 | |||||
| 01:19 | Trim Patrick St | 2 | 13.1 | 71 | 38,456 | 0.24 | 5.9 | 3.52 | 34.78 | 10.92 | 0 | 2.86 | 6.51 | 7.16 | |||||
| 01:19 | Trim Market St | 2 | 14.8 | 64 | 57,741 | 0.33 | 0 | 2.34 | 14.64 | 36.87 | 0 | 2.14 | 4.85 | 6.86 | |||||
| 01:18 | Trim Patrick St | 2 | 13.1 | 71 | 38,454 | 0.24 | 5.3 | 3.42 | 34.78 | 10.04 | 0 | 3.71 | 7.95 | 8.75 | |||||
| 01:18 | Trim Market St | 2 | 14.8 | 63 | 57,745 | 0.34 | 0 | 2.4 | 16.1 | 34.59 | 0 | 1.43 | 3.86 | 6.86 | |||||
| 01:17 | Trim Market St | 2 | 14.8 | 63 | 57,749 | 0.42 | 0 | 2.17 | 19.97 | 30.98 | 0 | 1.43 | 3.86 | 5.53 | |||||
| 01:16 | Trim Market St | 2 | 14.8 | 63 | 57,753 | 0.63 | 0 | 2.22 | 22.23 | 31.21 | 0 | 1.43 | 3.37 | 5.53 | |||||
| 01:15 | Trim Patrick St | 2 | 13.2 | 71 | 38,449 | 0.23 | 5.8 | 3.67 | 33.33 | 11.13 | 0 | 2.86 | 7.96 | 8.76 | |||||
| 01:15 | Trim Market St | 2 | 14.8 | 63 | 57,759 | 0.55 | 0 | 1.82 | 13.04 | 38.24 | 0 | 2.85 | 3.87 | 5.53 | |||||
| 01:14 | Trim Patrick St | 2 | 13.2 | 71 | 38,445 | 0.24 | 5.72 | 3.67 | 34.24 | 11.38 | 0 | 3.71 | 7.96 | 8.76 | |||||
| 01:14 | Trim Market St | 2 | 14.8 | 63 | 57,763 | 0.28 | 0 | 1.67 | 23.11 | 38.7 | 0 | 1.43 | 2.88 | 4.19 | |||||
| 01:13 | Trim Patrick St | 2 | 13.2 | 71 | 38,439 | 0.22 | 5.82 | 3.53 | 33.33 | 12.5 | 0 | 4.57 | 7.97 | 8.77 | |||||
| 01:13 | Trim Market St | 2 | 14.8 | 63 | 57,767 | 0.26 | 0 | 1.61 | 14.22 | 43.43 | 0 | 1.43 | 4.37 | 6.19 | |||||
| 01:12 | Trim Patrick St | 2 | 13.2 | 71 | 38,432 | 0.24 | 6.03 | 3.51 | 34.67 | 11.49 | 0 | 3.71 | 7.26 | 7.99 | |||||
| 01:12 | Trim Market St | 2 | 14.9 | 63 | 57,770 | 0.25 | 0 | 1.68 | 14.15 | 38 | 0 | 2.85 | 4.37 | 6.19 | |||||
| 01:11 | Trim Patrick St | 2 | 13.2 | 71 | 38,423 | 0.23 | 5.82 | 3.66 | 33.77 | 11.83 | 0 | 2.86 | 6.54 | 7.19 | |||||
| 01:11 | Trim Market St | 2 | 14.8 | 63 | 57,772 | 0.26 | 0 | 1.62 | 13.03 | 37.18 | 0 | 1.43 | 3.38 | 5.53 | |||||